Time;durP1;ratioP1;P1;durP2;ratioP2;P2;SDS_P1;SDS_P2;PMS_P1;PMS_P2;Temp;Humidity;BMP_temperature;BMP_pressure;BME280_temperature;BME280_humidity;BME280_pressure;Samples;Min_cycle;Max_cycle;Signal;HPM_P1;HPM_P2
2023/05/26 00:00:02;;;;;;;16.88;2.97;;;;;;;10.28;100.00;102523.50;6225438;28;20192;-72
2023/05/26 00:03:04;;;;;;;9.80;1.88;;;;;;;10.24;100.00;102524.44;6225832;28;20438;-72
2023/05/26 00:06:09;;;;;;;18.75;2.20;;;;;;;10.23;100.00;102531.44;6226027;28;20046;-72
2023/05/26 00:09:11;;;;;;;10.02;2.58;;;;;;;10.13;100.00;102533.44;6225248;28;20049;-72
2023/05/26 00:12:13;;;;;;;11.75;2.63;;;;;;;10.04;100.00;102533.63;6223698;28;20061;-72
2023/05/26 00:15:15;;;;;;;15.60;2.22;;;;;;;10.04;100.00;102531.00;6212334;28;20061;-72
2023/05/26 00:18:17;;;;;;;16.83;2.63;;;;;;;9.97;100.00;102532.03;6225944;28;20053;-72
2023/05/26 00:21:18;;;;;;;15.88;2.42;;;;;;;10.08;100.00;102540.56;6224884;28;20103;-72
2023/05/26 00:24:20;;;;;;;17.40;2.40;;;;;;;9.97;100.00;102534.66;6223306;28;20350;-72
2023/05/26 00:27:22;;;;;;;13.40;1.88;;;;;;;10.06;100.00;102546.72;6221203;28;20045;-73
2023/05/26 00:30:24;;;;;;;11.63;2.25;;;;;;;10.00;100.00;102545.09;6225158;28;20050;-73
2023/05/26 00:33:25;;;;;;;19.67;3.30;;;;;;;10.03;100.00;102542.38;6219678;28;20100;-73
2023/05/26 00:36:26;;;;;;;8.75;2.58;;;;;;;10.09;100.00;102541.41;6225759;28;20469;-73
2023/05/26 00:39:28;;;;;;;13.77;2.22;;;;;;;9.99;100.00;102542.50;6224974;28;20042;-73
2023/05/26 00:42:30;;;;;;;15.60;2.47;;;;;;;9.89;100.00;102542.69;6227341;28;20045;-73
2023/05/26 00:45:32;;;;;;;15.88;2.63;;;;;;;9.89;100.00;102549.72;6230675;28;20046;-73
2023/05/26 00:48:33;;;;;;;13.77;2.38;;;;;;;9.92;100.00;102547.03;6229762;28;20046;-73
2023/05/26 00:51:35;;;;;;;16.00;2.50;;;;;;;9.90;100.00;102552.31;6230522;28;20347;-73
2023/05/26 00:54:37;;;;;;;14.52;4.75;;;;;;;9.83;100.00;102550.72;6229952;28;20053;-73
2023/05/26 00:57:40;;;;;;;21.17;2.88;;;;;;;9.79;100.00;102546.41;6227986;28;20458;-73
2023/05/26 01:00:42;;;;;;;21.40;3.05;;;;;;;9.73;100.00;102546.56;6229570;28;20049;-73
2023/05/26 01:03:44;;;;;;;13.82;1.80;;;;;;;9.68;100.00;102545.78;6230069;28;20046;-73
2023/05/26 01:06:46;;;;;;;25.15;3.80;;;;;;;9.65;100.00;102553.72;6230127;28;20423;-73
2023/05/26 01:09:48;;;;;;;19.35;2.67;;;;;;;9.66;100.00;102558.94;6229230;28;20375;-73
2023/05/26 01:12:57;;;;;;;17.83;2.35;;;;;;;9.69;100.00;102565.88;6230025;28;20053;-73
2023/05/26 01:16:07;;;;;;;12.07;2.15;;;;;;;9.66;100.00;102563.31;6229775;28;20057;-73
2023/05/26 01:19:24;;;;;;;12.50;2.30;;;;;;;9.62;100.00;102567.75;6228847;28;20398;-73
2023/05/26 01:22:45;;;;;;;15.02;3.28;;;;;;;9.60;100.00;102563.44;6229390;28;20350;-73
2023/05/26 01:26:01;;;;;;;17.40;2.75;;;;;;;9.66;100.00;102566.81;6224674;28;20050;-73
2023/05/26 01:29:09;;;;;;;13.88;2.70;;;;;;;9.55;100.00;102563.53;6205993;28;20137;-73
2023/05/26 01:32:17;;;;;;;15.93;2.45;;;;;;;9.55;100.00;102568.78;6206034;28;20046;-73
2023/05/26 01:35:18;;;;;;;13.15;2.50;;;;;;;9.48;100.00;102559.28;6205195;28;20054;-73
2023/05/26 01:38:20;;;;;;;13.77;2.60;;;;;;;9.48;100.00;102566.31;6218726;28;20050;-73
2023/05/26 01:41:27;;;;;;;19.45;2.65;;;;;;;9.36;100.00;102560.41;6211528;28;20046;-73
2023/05/26 01:44:36;;;;;;;16.42;2.80;;;;;;;9.44;100.00;102564.63;6229035;28;20053;-73
2023/05/26 01:47:40;;;;;;;18.95;3.08;;;;;;;9.34;100.00;102562.19;6227642;28;20053;-73
2023/05/26 01:50:45;;;;;;;16.20;4.07;;;;;;;9.35;100.00;102563.06;6228228;28;20050;-73
2023/05/26 01:53:52;;;;;;;20.08;2.63;;;;;;;9.35;100.00;102569.16;6228142;28;20054;-73
2023/05/26 01:56:54;;;;;;;11.57;1.83;;;;;;;9.30;100.00;102575.41;6219862;28;20061;-73
2023/05/26 01:59:57;;;;;;;5.95;2.15;;;;;;;9.24;100.00;102571.13;6213100;28;20435;-73
2023/05/26 02:02:58;;;;;;;15.65;3.25;;;;;;;9.18;100.00;102578.25;6228648;28;20053;-73
2023/05/26 02:06:00;;;;;;;25.38;2.33;;;;;;;9.14;100.00;102577.44;6228588;28;20097;-73
2023/05/26 02:09:01;;;;;;;17.45;3.13;;;;;;;9.12;100.00;102573.97;6227916;28;20046;-73
2023/05/26 02:12:03;;;;;;;13.88;2.30;;;;;;;9.07;100.00;102573.19;6228290;28;20336;-73
2023/05/26 02:15:07;;;;;;;7.45;1.63;;;;;;;9.11;100.00;102577.50;6228471;28;20054;-73
2023/05/26 02:18:10;;;;;;;19.38;3.00;;;;;;;9.05;100.00;102575.00;6228122;28;20046;-73
2023/05/26 02:21:11;;;;;;;8.38;1.73;;;;;;;9.11;100.00;102580.13;6227658;28;20058;-73
2023/05/26 02:24:13;;;;;;;17.92;2.47;;;;;;;8.97;100.00;102575.13;6227954;28;20394;-73
2023/05/26 02:27:15;;;;;;;11.75;2.20;;;;;;;8.86;100.00;102577.94;6220263;28;20050;-72
2023/05/26 02:30:18;;;;;;;9.68;1.98;;;;;;;8.86;100.00;102575.31;6227355;28;20045;-73
2023/05/26 02:33:19;;;;;;;15.40;2.65;;;;;;;8.92;100.00;102586.56;6228253;28;20046;-73
2023/05/26 02:36:21;;;;;;;7.68;1.48;;;;;;;8.92;100.00;102587.44;6228040;28;20050;-73
2023/05/26 02:39:22;;;;;;;18.58;3.10;;;;;;;8.82;100.00;102591.13;6226957;28;20042;-73
2023/05/26 02:42:24;;;;;;;18.80;2.45;;;;;;;8.72;100.00;102593.03;6227676;28;20050;-73
2023/05/26 02:45:26;;;;;;;12.60;2.55;;;;;;;8.65;100.00;102594.00;6227728;28;20057;-73
2023/05/26 02:48:28;;;;;;;14.80;2.45;;;;;;;8.59;100.00;102599.34;6227853;28;20048;-73
2023/05/26 02:51:29;;;;;;;15.88;2.00;;;;;;;8.62;100.00;102597.50;6226744;28;20061;-73
2023/05/26 02:54:30;;;;;;;16.25;2.65;;;;;;;8.63;100.00;102601.91;6227396;28;20046;-73
2023/05/26 02:57:32;;;;;;;16.67;1.83;;;;;;;8.59;100.00;102601.97;6219151;28;20049;-73
2023/05/26 03:00:34;;;;;;;13.98;2.97;;;;;;;8.66;100.00;102605.34;6204794;28;20057;-73
2023/05/26 03:03:36;;;;;;;10.88;1.98;;;;;;;8.65;100.00;102601.84;6216549;28;20512;-73
2023/05/26 03:06:37;;;;;;;13.95;3.33;;;;;;;8.62;100.00;102608.00;6226569;28;20096;-73
2023/05/26 03:09:39;;;;;;;20.58;2.63;;;;;;;8.56;100.00;102607.25;6209125;28;20180;-73
2023/05/26 03:12:41;;;;;;;30.92;3.05;;;;;;;8.51;100.00;102606.44;6227296;28;20053;-73
2023/05/26 03:15:44;;;;;;;12.95;2.20;;;;;;;8.51;100.00;102604.69;6227303;28;20046;-73
2023/05/26 03:18:46;;;;;;;10.27;2.50;;;;;;;8.46;100.00;102613.50;6226459;28;20050;-73
2023/05/26 03:21:47;;;;;;;17.00;1.95;;;;;;;8.41;100.00;102612.72;6226626;28;20053;-73
2023/05/26 03:24:48;;;;;;;12.15;2.30;;;;;;;8.49;100.00;102622.16;6226976;28;20056;-73
2023/05/26 03:27:50;;;;;;;11.75;2.50;;;;;;;8.39;100.00;102624.06;6216568;28;20060;-73
2023/05/26 03:30:52;;;;;;;15.13;2.55;;;;;;;8.41;100.00;102624.06;6210934;28;20099;-73
2023/05/26 03:33:54;;;;;;;11.60;2.83;;;;;;;8.37;100.00;102619.75;6219844;28;20046;-73
2023/05/26 03:36:55;;;;;;;13.75;2.08;;;;;;;8.45;100.00;102623.13;6221771;28;20370;-73
2023/05/26 03:39:57;;;;;;;14.88;1.65;;;;;;;8.35;100.00;102622.34;6210051;28;20053;-73
2023/05/26 03:43:01;;;;;;;9.35;2.00;;;;;;;8.39;100.00;102633.66;6226525;28;20046;-73
2023/05/26 03:46:03;;;;;;;13.68;2.47;;;;;;;8.35;100.00;102635.44;6219276;28;20604;-73
2023/05/26 03:49:05;;;;;;;16.02;2.92;;;;;;;8.43;100.00;102642.38;6208184;28;20057;-73
2023/05/26 03:52:07;;;;;;;20.35;2.92;;;;;;;8.40;100.00;102645.88;6219933;28;20049;-72
2023/05/26 03:55:09;;;;;;;21.77;3.30;;;;;;;8.38;100.00;102643.28;6226128;28;20752;-73
2023/05/26 03:58:11;;;;;;;27.17;2.88;;;;;;;8.35;100.00;102645.91;6217457;28;20433;-73
2023/05/26 04:01:15;;;;;;;10.32;2.28;;;;;;;8.29;100.00;102635.53;6208176;28;20614;-73
2023/05/26 04:04:17;;;;;;;8.93;1.67;;;;;;;8.21;100.00;102634.75;6205737;28;20039;-73
2023/05/26 04:07:18;;;;;;;14.63;2.45;;;;;;;8.20;100.00;102637.41;6205898;28;20042;-73
2023/05/26 04:10:19;;;;;;;6.80;2.30;;;;;;;8.26;100.00;102638.19;6202609;28;20037;-73
2023/05/26 04:13:21;;;;;;;16.52;2.22;;;;;;;8.22;100.00;102648.72;6202668;28;20042;-73
2023/05/26 04:16:24;;;;;;;9.10;1.98;;;;;;;8.21;100.00;102641.75;6204629;28;20050;-72
2023/05/26 04:19:25;;;;;;;6.90;1.88;;;;;;;8.16;100.00;102646.19;6202765;28;20081;-73
2023/05/26 04:22:26;;;;;;;13.45;2.55;;;;;;;8.16;100.00;102646.19;6194604;28;20504;-72
2023/05/26 04:25:28;;;;;;;15.55;2.47;;;;;;;8.14;100.00;102647.06;6204456;28;20038;-72
2023/05/26 04:28:29;;;;;;;11.40;2.50;;;;;;;8.26;100.00;102653.88;6195661;28;20045;-73
2023/05/26 04:31:32;;;;;;;8.75;2.85;;;;;;;8.20;100.00;102653.97;6203703;28;20048;-72
2023/05/26 04:34:33;;;;;;;7.45;1.42;;;;;;;8.31;100.00;102654.72;6196866;28;20076;-73
2023/05/26 04:37:34;;;;;;;21.48;2.08;;;;;;;8.27;100.00;102660.88;6203416;28;20046;-73
2023/05/26 04:40:36;;;;;;;9.35;2.92;;;;;;;8.17;100.00;102663.63;6203711;28;20038;-73
2023/05/26 04:43:38;;;;;;;13.95;2.65;;;;;;;8.19;100.00;102659.25;6205245;28;20081;-73
2023/05/26 04:46:40;;;;;;;15.07;3.42;;;;;;;8.21;100.00;102658.31;6205289;28;20038;-73
2023/05/26 04:49:42;;;;;;;12.52;3.05;;;;;;;8.25;100.00;102667.00;6204596;28;20486;-73
2023/05/26 04:52:43;;;;;;;21.33;3.22;;;;;;;8.36;100.00;102667.75;6205069;28;20052;-73
2023/05/26 04:55:45;;;;;;;15.40;2.75;;;;;;;8.37;100.00;102672.13;6203397;28;20069;-73
2023/05/26 04:58:46;;;;;;;6.05;1.52;;;;;;;8.39;100.00;102676.44;6204711;28;20068;-73
2023/05/26 05:01:49;;;;;;;12.57;2.13;;;;;;;8.38;100.00;102677.34;6225285;28;20046;-73
2023/05/26 05:04:51;;;;;;;9.73;2.08;;;;;;;8.41;100.00;102679.06;6225401;28;20054;-73
2023/05/26 05:07:52;;;;;;;20.92;4.75;;;;;;;8.48;100.00;102687.72;6225106;28;20108;-73
2023/05/26 05:10:54;;;;;;;6.82;1.98;;;;;;;8.39;100.00;102684.31;6224728;28;20046;-72
2023/05/26 05:13:55;;;;;;;15.32;2.53;;;;;;;8.42;100.00;102683.41;6225131;28;20046;-72
2023/05/26 05:16:57;;;;;;;14.70;2.95;;;;;;;8.47;100.00;102685.97;6192886;28;20351;-72
2023/05/26 05:19:59;;;;;;;13.27;2.55;;;;;;;8.56;100.00;102684.09;6200193;28;20134;-73
2023/05/26 05:23:00;;;;;;;12.68;2.28;;;;;;;8.58;100.00;102689.31;6200624;28;20496;-73
2023/05/26 05:26:02;;;;;;;11.23;2.47;;;;;;;8.58;100.00;102692.81;6206813;28;20046;-72
2023/05/26 05:29:03;;;;;;;10.68;2.42;;;;;;;8.58;100.00;102700.69;6225245;28;20128;-73
2023/05/26 05:32:06;;;;;;;13.13;3.13;;;;;;;8.56;100.00;102705.06;6223260;28;20057;-72
2023/05/26 05:35:10;;;;;;;11.00;2.13;;;;;;;8.62;100.00;102699.72;6204916;28;20065;-73
2023/05/26 05:38:12;;;;;;;7.72;1.85;;;;;;;8.60;100.00;102705.88;6229398;28;20303;-72
2023/05/26 05:41:14;;;;;;;14.45;1.85;;;;;;;8.67;100.00;102710.16;6224745;28;20054;-72
2023/05/26 05:44:15;;;;;;;16.10;2.50;;;;;;;8.78;100.00;102707.38;6228948;28;20362;-72
2023/05/26 05:47:18;;;;;;;14.45;2.45;;;;;;;8.74;100.00;102710.94;6229094;28;20045;-72
2023/05/26 05:50:19;;;;;;;15.05;2.78;;;;;;;8.82;100.00;102716.94;6228231;28;20042;-72
2023/05/26 05:53:21;;;;;;;13.52;2.58;;;;;;;8.91;100.00;102715.94;6228823;28;20394;-73
2023/05/26 05:56:22;;;;;;;14.10;2.65;;;;;;;8.98;100.00;102721.06;6223353;28;20049;-73
2023/05/26 05:59:23;;;;;;;8.38;2.00;;;;;;;8.97;100.00;102721.09;6220986;28;20042;-74
2023/05/26 06:02:26;;;;;;;19.88;2.92;;;;;;;8.95;100.00;102720.22;6228578;28;20434;-72
2023/05/26 06:05:28;;;;;;;14.30;2.15;;;;;;;8.98;100.00;102723.69;6228750;28;20042;-73
2023/05/26 06:08:29;;;;;;;21.45;2.70;;;;;;;8.97;100.00;102721.97;6228581;28;20046;-73
2023/05/26 06:11:30;;;;;;;14.68;2.88;;;;;;;9.00;100.00;102727.16;6227998;28;20050;-72
2023/05/26 06:14:32;;;;;;;19.92;2.88;;;;;;;9.04;100.00;102731.47;6222359;28;20072;-72
2023/05/26 06:17:34;;;;;;;17.88;2.60;;;;;;;9.10;100.00;102722.66;6228556;28;20046;-72
2023/05/26 06:20:36;;;;;;;8.15;2.58;;;;;;;9.15;100.00;102726.91;6227562;28;20095;-72
2023/05/26 06:23:37;;;;;;;16.70;4.35;;;;;;;9.22;100.00;102737.31;6228179;28;20454;-72
2023/05/26 06:26:38;;;;;;;20.05;2.55;;;;;;;9.30;100.00;102738.06;6223319;28;20049;-73
2023/05/26 06:29:40;;;;;;;13.52;2.17;;;;;;;9.42;100.00;102727.38;6227362;28;20049;-73
2023/05/26 06:32:42;;;;;;;14.27;2.40;;;;;;;9.39;100.00;102732.66;6213983;28;20443;-73
2023/05/26 06:35:44;;;;;;;10.43;2.13;;;;;;;9.46;100.00;102730.81;6199447;28;20046;-73
2023/05/26 06:38:45;;;;;;;11.77;2.47;;;;;;;9.54;100.00;102745.56;6211822;28;20054;-73
2023/05/26 06:41:46;;;;;;;5.20;1.90;;;;;;;9.65;100.00;102742.72;6203093;28;20054;-74
2023/05/26 06:44:48;;;;;;;17.65;3.17;;;;;;;9.69;100.00;102743.53;6207764;28;20046;-74
2023/05/26 06:47:50;;;;;;;14.98;3.38;;;;;;;9.75;100.00;102740.81;6199789;28;20053;-73
2023/05/26 06:50:53;;;;;;;16.27;2.97;;;;;;;9.77;100.00;102744.28;6234978;28;20053;-73
2023/05/26 06:53:54;;;;;;;19.92;3.15;;;;;;;9.79;100.00;102748.59;6234588;28;20053;-73
2023/05/26 06:56:55;;;;;;;10.82;2.15;;;;;;;9.72;100.00;102739.13;6236263;28;20050;-73
2023/05/26 06:59:57;;;;;;;18.75;4.35;;;;;;;9.81;100.00;102746.81;6217434;28;20046;-73
2023/05/26 07:02:59;;;;;;;17.00;2.05;;;;;;;9.89;100.00;102750.16;6227184;28;20056;-73
2023/05/26 07:06:02;;;;;;;25.48;2.65;;;;;;;10.04;100.00;102745.53;6227378;28;20053;-73
2023/05/26 07:09:04;;;;;;;15.80;2.67;;;;;;;10.01;100.00;102754.34;6226463;28;20050;-73
2023/05/26 07:12:06;;;;;;;12.75;2.83;;;;;;;10.06;100.00;102754.25;6227176;28;20054;-73
2023/05/26 07:15:08;;;;;;;9.80;2.95;;;;;;;10.15;100.00;102761.94;6226937;28;20064;-73
2023/05/26 07:18:11;;;;;;;14.57;1.98;;;;;;;10.16;100.00;102763.66;6226953;28;20328;-73
2023/05/26 07:21:14;;;;;;;14.48;1.85;;;;;;;10.15;100.00;102754.94;6226069;28;20458;-73
2023/05/26 07:24:16;;;;;;;14.65;3.60;;;;;;;10.19;100.00;102761.00;6226651;28;20113;-73
2023/05/26 07:27:17;;;;;;;8.63;1.75;;;;;;;10.27;100.00;102758.25;6226473;28;20049;-74
2023/05/26 07:30:19;;;;;;;11.75;2.17;;;;;;;10.27;100.00;102764.38;6225965;28;20049;-73
2023/05/26 07:33:22;;;;;;;8.02;2.22;;;;;;;10.28;100.00;102765.25;6226543;28;20366;-73
2023/05/26 07:36:23;;;;;;;19.70;2.15;;;;;;;10.31;100.00;102762.53;6246172;28;20091;-73
2023/05/26 07:39:24;;;;;;;9.07;1.75;;;;;;;10.34;100.00;102758.09;6250373;28;20042;-73
2023/05/26 07:42:26;;;;;;;11.63;2.00;;;;;;;10.38;100.00;102759.75;6250808;28;20095;-73
2023/05/26 07:45:27;;;;;;;14.70;2.88;;;;;;;10.39;100.00;102761.50;6251137;28;20052;-73
2023/05/26 07:48:30;;;;;;;8.05;2.00;;;;;;;10.46;100.00;102761.38;6250834;28;20045;-73
2023/05/26 07:51:32;;;;;;;19.83;2.55;;;;;;;10.51;100.00;102759.53;6223957;28;20038;-73
2023/05/26 07:54:33;;;;;;;12.98;2.78;;;;;;;10.59;100.00;102761.09;6222476;28;20188;-73
2023/05/26 07:57:35;;;;;;;8.15;1.75;;;;;;;10.62;100.00;102766.28;6220908;28;20042;-73
2023/05/26 08:00:36;;;;;;;16.42;2.08;;;;;;;10.70;99.59;102760.84;6224026;28;20049;-73
2023/05/26 08:03:39;;;;;;;8.38;1.90;;;;;;;10.68;96.78;102756.53;6224957;28;20458;-73
2023/05/26 08:06:41;;;;;;;10.95;2.10;;;;;;;10.76;99.54;102749.31;6232495;28;20046;-73
2023/05/26 08:09:43;;;;;;;14.55;2.17;;;;;;;10.84;96.68;102752.66;6225043;28;20045;-73
2023/05/26 08:12:44;;;;;;;10.32;1.70;;;;;;;10.90;94.77;102752.50;6225891;28;20050;-73
2023/05/26 08:15:46;;;;;;;15.23;2.45;;;;;;;10.91;95.26;102749.00;6233672;28;20049;-73
2023/05/26 08:18:49;;;;;;;15.30;3.22;;;;;;;10.93;98.49;102745.44;6231448;28;20060;-73
2023/05/26 08:21:50;;;;;;;13.02;1.98;;;;;;;11.02;98.82;102741.72;6230158;28;20316;-73
2023/05/26 08:24:53;;;;;;;14.25;2.13;;;;;;;11.11;100.00;102741.50;6230511;28;20355;-73
2023/05/26 08:27:54;;;;;;;19.73;2.25;;;;;;;11.16;98.62;102751.91;6230406;28;20057;-73
2023/05/26 08:30:55;;;;;;;14.77;2.00;;;;;;;11.22;94.44;102740.38;6225035;28;20046;-73
2023/05/26 08:33:58;;;;;;;14.50;2.17;;;;;;;11.26;94.11;102747.31;6230979;28;20057;-73
2023/05/26 08:37:00;;;;;;;9.65;2.25;;;;;;;11.31;94.47;102751.56;6249988;28;20764;-73
2023/05/26 08:40:02;;;;;;;12.73;3.40;;;;;;;11.30;92.40;102755.09;6249281;28;20069;-74
2023/05/26 08:43:07;;;;;;;21.23;3.50;;;;;;;11.22;95.51;102748.28;6249892;28;20059;-73
2023/05/26 08:46:12;;;;;;;39.33;4.38;;;;;;;11.32;98.80;102745.41;6250021;28;20049;-73
2023/05/26 08:49:17;;;;;;;19.05;3.30;;;;;;;11.31;97.59;102746.31;6249168;28;20053;-72
2023/05/26 08:52:20;;;;;;;12.85;3.40;;;;;;;11.32;99.73;102748.03;6249826;28;20127;-73
2023/05/26 08:55:21;;;;;;;13.38;2.20;;;;;;;11.41;98.37;102752.22;6249841;28;20052;-74
2023/05/26 08:58:23;;;;;;;10.77;2.28;;;;;;;11.41;95.39;102739.06;6233258;28;20052;-73
2023/05/26 09:01:25;;;;;;;12.73;2.13;;;;;;;11.56;99.01;102749.19;6249098;28;20589;-73
2023/05/26 09:04:30;;;;;;;12.80;2.83;;;;;;;11.64;93.51;102747.22;6251821;28;20041;-73
2023/05/26 09:07:31;;;;;;;14.65;3.67;;;;;;;11.65;95.37;102741.06;6239353;28;20346;-73
2023/05/26 09:10:33;;;;;;;11.55;2.55;;;;;;;11.75;96.67;102744.31;6229553;28;20038;-73
2023/05/26 09:13:40;;;;;;;14.90;2.40;;;;;;;11.79;93.49;102735.41;6229852;28;20426;-73
2023/05/26 09:16:41;;;;;;;13.80;2.00;;;;;;;11.89;92.82;102739.56;6228073;28;20480;-74
2023/05/26 09:19:44;;;;;;;13.95;2.78;;;;;;;11.85;91.30;102735.28;6253867;28;20046;-74
2023/05/26 09:22:46;;;;;;;11.82;3.20;;;;;;;11.88;91.64;102729.94;6254029;28;20068;-74
2023/05/26 09:25:51;;;;;;;12.20;2.28;;;;;;;11.89;90.95;102731.66;6246344;28;20180;-73
2023/05/26 09:28:53;;;;;;;12.73;2.25;;;;;;;11.99;89.24;102740.22;6243895;28;20710;-74
2023/05/26 09:31:54;;;;;;;7.43;1.55;;;;;;;12.10;93.41;102734.63;6240882;28;20060;-73
2023/05/26 09:34:58;;;;;;;11.77;3.13;;;;;;;12.12;89.99;102738.06;6237490;28;20133;-74
2023/05/26 09:38:02;;;;;;;18.05;2.53;;;;;;;12.26;89.36;102733.28;6221624;28;20054;-73
2023/05/26 09:41:04;;;;;;;13.60;2.00;;;;;;;12.22;89.37;102739.56;6228364;28;20471;-74
2023/05/26 09:44:09;;;;;;;14.52;2.75;;;;;;;12.38;87.99;102740.84;6228852;28;20061;-74
2023/05/26 09:47:19;;;;;;;15.48;2.45;;;;;;;12.41;84.41;102735.50;6228096;28;20145;-74
2023/05/26 09:50:24;;;;;;;10.90;2.38;;;;;;;12.50;84.58;102734.34;6228409;28;20070;-75
2023/05/26 09:53:25;;;;;;;10.93;2.42;;;;;;;12.53;84.16;102736.88;6225563;28;20042;-75
2023/05/26 09:56:30;;;;;;;13.13;2.22;;;;;;;12.64;88.49;102736.59;6227462;28;20050;-74
2023/05/26 09:59:36;;;;;;;17.05;2.35;;;;;;;12.67;87.68;102742.63;6227399;28;20061;-75
2023/05/26 10:02:39;;;;;;;14.45;3.35;;;;;;;12.74;81.98;102734.53;6240121;28;20095;-74
2023/05/26 10:05:46;;;;;;;7.75;1.88;;;;;;;12.82;85.68;102730.75;6230909;28;20431;-74
2023/05/26 10:08:52;;;;;;;17.55;2.13;;;;;;;12.84;85.07;102736.81;6224964;28;20336;-75
2023/05/26 10:11:57;;;;;;;15.05;2.60;;;;;;;12.93;82.79;102738.31;6234790;28;20046;-74
2023/05/26 10:14:59;;;;;;;9.73;1.70;;;;;;;12.97;83.58;102733.81;6228091;28;20502;-75
2023/05/26 10:18:01;;;;;;;5.60;1.50;;;;;;;13.13;82.58;102745.63;6229307;28;20050;-75
2023/05/26 10:21:07;;;;;;;12.65;2.88;;;;;;;13.19;84.56;102734.84;6232907;28;20046;-74
2023/05/26 10:24:13;;;;;;;22.40;3.22;;;;;;;13.28;84.54;102745.16;6228071;28;20060;-75
2023/05/26 10:27:20;;;;;;;8.93;2.33;;;;;;;13.29;83.40;102740.72;6222211;28;20051;-75
2023/05/26 10:30:23;;;;;;;9.02;2.35;;;;;;;13.35;84.56;102730.84;6235523;28;20450;-75
2023/05/26 10:33:38;;;;;;;7.78;1.92;;;;;;;13.38;84.25;102729.84;6233960;28;20054;-75
2023/05/26 10:36:41;;;;;;;16.80;2.15;;;;;;;13.53;78.94;102718.78;6236865;28;20053;-75
2023/05/26 10:39:42;;;;;;;13.15;2.40;;;;;;;13.53;79.03;102723.19;6241240;28;20050;-75
2023/05/26 10:42:49;;;;;;;11.00;2.67;;;;;;;13.53;81.32;102731.13;6252334;28;20049;-74
2023/05/26 10:45:55;;;;;;;9.30;2.30;;;;;;;13.64;80.44;102729.00;6252174;28;20058;-75
2023/05/26 10:48:58;;;;;;;6.60;2.10;;;;;;;13.78;82.88;102728.50;6251705;28;20061;-75
2023/05/26 10:52:10;;;;;;;10.55;2.03;;;;;;;13.95;77.57;102726.13;6251858;28;20330;-75
2023/05/26 10:55:28;;;;;;;8.65;1.75;;;;;;;14.02;81.06;102722.34;6252106;28;20045;-75
2023/05/26 10:58:35;;;;;;;8.35;1.85;;;;;;;14.16;81.85;102721.84;6234773;28;20053;-76
2023/05/26 11:01:36;;;;;;;15.95;2.30;;;;;;;14.19;83.11;102725.22;6251793;28;20041;-75
2023/05/26 11:04:42;;;;;;;14.50;2.58;;;;;;;14.24;80.40;102729.50;6239635;28;20053;-76
2023/05/26 11:07:45;;;;;;;11.85;2.88;;;;;;;14.18;80.27;102720.00;6231625;28;20401;-75
2023/05/26 11:10:58;;;;;;;9.77;3.00;;;;;;;14.36;77.85;102715.81;6238242;28;20358;-76
2023/05/26 11:14:04;;;;;;;6.55;2.35;;;;;;;14.39;79.71;102718.34;6236123;28;20049;-75
2023/05/26 11:17:06;;;;;;;10.85;2.50;;;;;;;14.36;78.34;102707.88;6242794;28;20064;-75
2023/05/26 11:20:16;;;;;;;17.58;2.83;;;;;;;14.54;80.81;102712.50;6235742;28;20155;-76
2023/05/26 11:23:20;;;;;;;11.48;2.15;;;;;;;14.73;76.38;102714.44;6251145;28;20064;-75
2023/05/26 11:26:23;;;;;;;12.15;2.10;;;;;;;14.84;75.43;102701.63;6242198;28;20087;-75
2023/05/26 11:29:24;;;;;;;13.07;2.20;;;;;;;14.89;76.39;102697.00;6226008;28;20430;-75
2023/05/26 11:32:27;;;;;;;8.00;1.73;;;;;;;15.22;79.12;102692.13;6226808;28;20076;-75
2023/05/26 11:35:30;;;;;;;12.15;2.50;;;;;;;15.51;79.64;102704.16;6231093;28;20054;-75
2023/05/26 11:38:33;;;;;;;10.90;2.85;;;;;;;15.51;72.09;102692.69;6251295;28;20434;-75
2023/05/26 11:41:35;;;;;;;8.57;2.25;;;;;;;15.50;74.97;102691.81;6250945;28;20041;-75
2023/05/26 11:44:36;;;;;;;9.18;2.55;;;;;;;15.55;70.27;102696.94;6250957;28;20049;-76
2023/05/26 11:47:38;;;;;;;11.88;2.38;;;;;;;15.55;72.68;102694.28;6250765;28;20350;-76
2023/05/26 11:50:39;;;;;;;6.07;1.92;;;;;;;15.65;72.20;102699.13;6249921;28;20449;-75
2023/05/26 11:53:44;;;;;;;11.05;1.92;;;;;;;15.84;69.61;102690.38;6250774;28;20132;-75
2023/05/26 11:56:47;;;;;;;9.27;1.60;;;;;;;16.07;69.63;102702.59;6235722;28;20188;-75
2023/05/26 11:59:51;;;;;;;8.52;2.38;;;;;;;16.27;69.03;102709.69;6240334;28;20049;-75
2023/05/26 12:02:52;;;;;;;15.65;1.80;;;;;;;16.49;75.47;102699.78;6250361;28;20052;-76
2023/05/26 12:06:05;;;;;;;12.88;2.30;;;;;;;16.53;66.48;102700.47;6226281;28;20053;-75
2023/05/26 12:09:19;;;;;;;5.80;1.98;;;;;;;16.58;67.85;102683.44;6218184;28;20517;-75
2023/05/26 12:12:20;;;;;;;8.38;1.58;;;;;;;16.79;68.45;102691.31;6226031;28;20156;-75
2023/05/26 12:15:24;;;;;;;8.98;1.98;;;;;;;16.89;62.50;102692.59;6225758;28;20457;-76
2023/05/26 12:18:25;;;;;;;8.10;1.98;;;;;;;16.73;64.94;102685.38;6232052;28;20053;-75
2023/05/26 12:21:28;;;;;;;10.70;2.33;;;;;;;16.87;67.15;102678.53;6232886;28;20668;-75
2023/05/26 12:24:33;;;;;;;3.75;1.80;;;;;;;17.15;68.33;102678.88;6225920;28;20050;-75
2023/05/26 12:27:35;;;;;;;10.10;2.42;;;;;;;17.44;66.08;102676.53;6225100;28;20493;-75
2023/05/26 12:30:38;;;;;;;8.02;1.77;;;;;;;17.47;63.58;102679.91;6225142;28;20132;-75
2023/05/26 12:33:40;;;;;;;7.10;1.85;;;;;;;17.29;62.52;102672.00;6225564;28;20049;-75
2023/05/26 12:36:42;;;;;;;4.70;1.98;;;;;;;17.39;62.60;102674.09;6225329;28;20061;-75
2023/05/26 12:39:45;;;;;;;9.32;1.85;;;;;;;17.41;62.65;102676.69;6230120;28;20053;-75
2023/05/26 12:42:46;;;;;;;8.70;1.65;;;;;;;17.56;65.77;102678.56;6230308;28;20046;-75
2023/05/26 12:45:47;;;;;;;6.50;1.83;;;;;;;17.59;60.22;102683.72;6230468;28;20049;-76
2023/05/26 12:48:49;;;;;;;7.40;1.75;;;;;;;17.61;66.29;102671.19;6229731;28;20050;-75
2023/05/26 12:51:50;;;;;;;10.93;1.42;;;;;;;17.67;63.02;102675.38;6230636;28;20049;-75
2023/05/26 12:54:53;;;;;;;8.35;1.55;;;;;;;17.90;61.35;102672.38;6228491;28;20058;-75
2023/05/26 12:57:54;;;;;;;5.50;2.08;;;;;;;18.02;64.56;102669.97;6232270;28;20061;-74
2023/05/26 13:00:56;;;;;;;6.82;1.45;;;;;;;18.04;61.45;102686.75;6243114;28;20045;-75
2023/05/26 13:03:57;;;;;;;9.38;1.83;;;;;;;17.90;59.96;102676.84;6232132;28;20053;-75
2023/05/26 13:06:59;;;;;;;10.98;2.13;;;;;;;18.04;57.82;102673.44;6221786;28;20053;-76
2023/05/26 13:10:01;;;;;;;12.20;1.52;;;;;;;18.23;58.40;102671.47;6237031;28;20053;-75
2023/05/26 13:13:03;;;;;;;5.43;1.83;;;;;;;18.40;57.43;102682.06;6205572;28;20065;-76
2023/05/26 13:16:05;;;;;;;6.22;1.92;;;;;;;18.18;59.49;102677.06;6198735;28;20188;-74
2023/05/26 13:19:06;;;;;;;17.40;2.38;;;;;;;18.30;57.15;102672.00;6199758;28;20058;-70
2023/05/26 13:22:08;;;;;;;11.32;2.75;;;;;;;18.18;56.59;102676.19;6200393;28;20053;-76
2023/05/26 13:25:10;;;;;;;7.82;1.65;;;;;;;18.15;58.74;102669.22;6197211;28;20113;-75
2023/05/26 13:28:12;;;;;;;7.93;1.80;;;;;;;18.50;63.87;102674.41;6203595;28;20050;-75
2023/05/26 13:31:13;;;;;;;8.15;1.52;;;;;;;18.58;58.16;102664.19;6204262;28;20046;-75
2023/05/26 13:34:15;;;;;;;8.48;2.20;;;;;;;18.57;54.20;102662.47;6205180;28;20047;-75
2023/05/26 13:37:16;;;;;;;7.03;1.90;;;;;;;18.71;59.54;102664.38;6205151;28;20054;-75
2023/05/26 13:40:20;;;;;;;5.07;1.75;;;;;;;18.67;55.43;102669.00;6204202;28;20047;-77
2023/05/26 13:43:22;;;;;;;6.60;1.48;;;;;;;18.47;57.54;102661.28;6204922;28;20049;-75
2023/05/26 13:46:24;;;;;;;6.85;1.83;;;;;;;18.29;56.25;102659.63;6204858;28;20042;-76
2023/05/26 13:49:25;;;;;;;7.55;1.45;;;;;;;18.45;61.80;102656.03;6203077;28;20038;-75
2023/05/26 13:52:29;;;;;;;7.43;1.77;;;;;;;18.87;59.30;102641.25;6204692;28;20089;-76
2023/05/26 13:55:32;;;;;;;6.10;1.67;;;;;;;18.85;54.67;102647.59;6204577;28;20049;-75
2023/05/26 13:58:33;;;;;;;7.32;1.88;;;;;;;18.64;55.29;102649.66;6202676;28;20053;-78
2023/05/26 14:01:35;;;;;;;7.55;2.00;;;;;;;18.44;58.29;102642.78;6204391;28;20049;-75